Nearby METAR Reports

 

KPTW - Pottstown, Pennsylvania, USA
Distance from station: NE 6mi, 10km
Updated: 02/20/2018 9:54pm
Clear
Clear
 Wind from S
Wind: S 5 mph , 7 km/h
Temperature: 63°F , 17°C
Dew Point: 59°F , 15°C
Humidity: 88%
Barometer: 30.34 inHg , 1027.4 hPa
Clouds: Clear
Visibility: 9 miles , 14 km
2018/02/21 02:54 KPTW 210254Z AUTO 19004KT 9SM CLR 17/15 A3034 RMK AO2 SLP270 T01670150 53006
KMQS - Coatesville, Pennsylvania, USA
Distance from station: SW 18mi, 29km
Updated: 02/20/2018 10:15pm
Clear
Clear
 Wind from varies
Wind: varies 8 mph , 13 km/h, Gust: 14 mph , 22 km/h
Temperature: 61°F , 16°C
Barometer: 30.34 inHg , 1027.4 hPa
Clouds: Clear
Visibility: 10 miles , 16 km
2018/02/21 03:15 KMQS 210315Z AUTO VRB07G12KT 10SM CLR 16/ A3034 RMK AO2
 
KLOM - Philly Wings F, Pennsylvania, USA
Distance from station: E 19mi, 31km
Updated: 02/20/2018 10:15pm
Clear
Clear
 Wind from SW
Wind: SW 5 mph , 7 km/h
Temperature: 61°F , 16°C
Dew Point: 59°F , 15°C
Humidity: 94%
Barometer: 30.34 inHg , 1027.4 hPa
Clouds: Clear
Visibility: 10 miles , 16 km
2018/02/21 03:15 KLOM 210315Z AUTO 23004KT 10SM CLR 16/15 A3034 RMK AO1
KRDG - Reading, Pennsylvania, USA
Distance from station: NW 22mi, 36km
Updated: 02/20/2018 9:54pm
Clear
Clear
 Wind from S
Wind: S 8 mph , 13 km/h
Temperature: 63°F , 17°C
Dew Point: 59°F , 15°C
Humidity: 88%
Barometer: 30.30 inHg , 1026.1 hPa
Clouds: Clear
Visibility: 10 miles , 16 km
2018/02/21 02:54 KRDG 210254Z AUTO 19007KT 10SM CLR 17/15 A3030 RMK AO2 SLP265 T01670150 53003
 
KUKT - Quakertown Arp, Pennsylvania, USA
Distance from station: NE 22mi, 36km
Updated: 02/20/2018 10:15pm
Clear
Clear
 Wind from SSW
Wind: SSW 6 mph , 9 km/h
Temperature: 61°F , 16°C
Dew Point: 59°F , 15°C
Humidity: 94%
Barometer: 30.32 inHg , 1026.8 hPa
Clouds: Clear
Visibility: 10 miles , 16 km
2018/02/21 03:15 KUKT 210315Z AUTO 21005KT 10SM CLR 16/15 A3032 RMK A01
KXLL - Allentown Queen, Pennsylvania, USA
Distance from station: NNE 28mi, 46km
Updated: 02/20/2018 10:15pm
Clear
Clear
 Wind from S
Wind: S 7 mph , 11 km/h
Temperature: 54°F , 12°C
Dew Point: 54°F , 12°C
Humidity: 100%
Barometer: 30.32 inHg , 1026.8 hPa
Clouds: Clear
Visibility: 7 miles , 11 km
2018/02/21 03:15 KXLL 210315Z AUTO 19006KT 7SM CLR 12/12 A3032 RMK AO2
 
KDYL - Doylestown, Pennsylvania, USA
Distance from station: ENE 29mi, 47km
Updated: 02/20/2018 9:54pm
Clear
Clear
 Wind from SSW
Wind: SSW 6 mph , 9 km/h
Temperature: 63°F , 17°C
Dew Point: 57°F , 14°C
Humidity: 83%
Barometer: 30.32 inHg , 1026.8 hPa
Clouds: Clear
Visibility: 10 miles , 16 km
2018/02/21 02:54 KDYL 210254Z AUTO 20005KT 10SM CLR 17/14 A3032 RMK AO2 SLP266 T01670144 51005
KPHL - Philadelphia, Pennsylvania, USA
Distance from station: SE 30mi, 48km
Updated: 02/20/2018 9:54pm
Partly Cloudy
Partly Cloudy
 Wind from SSW
Wind: SSW 5 mph , 7 km/h
Temperature: 61°F , 16°C
Dew Point: 57°F , 14°C
Humidity: 88%
Barometer: 30.35 inHg , 1027.8 hPa
Clouds: Partly Cloudy
Visibility: 10 miles , 16 km
Cloud details: Partly Cloudy 25000 ft
2018/02/21 02:54 KPHL 210254Z 21004KT 10SM SCT250 16/14 A3035 RMK AO2 SLP276 60000 T01560139 53007 $
 
KPNE - Philadelphia/Ne, Pennsylvania, USA
Distance from station: E 33mi, 53km
Updated: 02/20/2018 9:54pm
Clear
Clear
 Wind from SSW
Wind: SSW 6 mph , 9 km/h
Temperature: 64°F , 18°C
Dew Point: 57°F , 14°C
Humidity: 78%
Barometer: 30.35 inHg , 1027.8 hPa
Clouds: Clear
Visibility: 10 miles , 16 km
2018/02/21 02:54 KPNE 210254Z 20005KT 10SM CLR 18/14 A3035 RMK AO2 SLP276 T01780144 52006
KABE - Allentown, Pennsylvania, USA
Distance from station: NNE 34mi, 55km
Updated: 02/20/2018 9:58pm
Shallow fog, Overcast
Shallow fog, Overcast
 Wind from NNW
Wind: NNW 3 mph , 6 km/h
Temperature: 46°F , 8°C
Dew Point: 45°F , 7°C
Humidity: 93%
Barometer: 30.31 inHg , 1026.4 hPa
Summary: Shallow Fog
Clouds: Overcast
Visibility: 1/4 mile , 0.4 km
Cloud details: Overcast 300 ft
2018/02/21 02:58 KABE 210258Z 33003KT 1/4SM MIFG VV003 08/07 A3031 RMK AO2 T00830072
 
KILG - Wilmington, Delaware, USA
Distance from station: S 35mi, 56km
Updated: 02/20/2018 9:51pm
Mist, Clear
Mist, Clear
 Wind from S
Wind: S 7 mph , 11 km/h
Temperature: 55°F , 13°C
Dew Point: 54°F , 12°C
Humidity: 94%
Barometer: 30.34 inHg , 1027.4 hPa
Summary: Mist
Clouds: Clear
Visibility: 5 miles , 8 km
2018/02/21 02:51 KILG 210251Z 17006KT 5SM BR CLR 13/12 A3034 RMK AO2 SLP275 T01280122 51004
KLNS - Lancaster, Pennsylvania, USA
Distance from station: W 36mi, 57km
Updated: 02/20/2018 9:53pm
Clear
Clear
 Wind from SE
Wind: SE 7 mph , 11 km/h
Temperature: 59°F , 15°C
Dew Point: 55°F , 13°C
Humidity: 88%
Barometer: 30.30 inHg , 1026.1 hPa
Clouds: Clear
Visibility: 10 miles , 16 km
2018/02/21 02:53 KLNS 210253Z 14006KT 10SM CLR 15/13 A3030 RMK AO2 SLP262 T01500133 53006
 
KTTN - Trenton, New Jersey, USA
Distance from station: E 44mi, 70km
Updated: 02/20/2018 9:53pm
Clear
Clear
 Wind from SSW
Wind: SSW 12 mph , 19 km/h
Temperature: 63°F , 17°C
Dew Point: 57°F , 14°C
Humidity: 83%
Barometer: 30.32 inHg , 1026.8 hPa
Clouds: Clear
Visibility: 10 miles , 16 km
2018/02/21 02:53 KTTN 210253Z 21010KT 10SM CLR 17/14 A3032 RMK AO2 SLP263 T01670144 53005
KVAY - Mount Holly, New Jersey, USA
Distance from station: ESE 45mi, 73km
Updated: 02/20/2018 9:54pm
Clear
Clear
 Wind from S
Wind: S 5 mph , 7 km/h
Temperature: 61°F , 16°C
Dew Point: 59°F , 15°C
Humidity: 94%
Barometer: 30.34 inHg , 1027.4 hPa
Clouds: Clear
Visibility: 10 miles , 16 km
2018/02/21 02:54 KVAY 210254Z AUTO 19004KT 10SM CLR 16/15 A3034 RMK AO2 SLP273 T01610150 53004
 
KMUI - Muir Aaf/Indiant, Pennsylvania, USA
Distance from station: WNW 52mi, 84km
Updated: 02/20/2018 10:11pm
Mist, Clear
Mist, Clear
 Wind from calm
Wind: Calm
Temperature: 50°F , 10°C
Dew Point: 50°F , 10°C
Humidity: 100%
Barometer: 30.29 inHg , 1025.7 hPa
Summary: Mist
Clouds: Clear
Visibility: 1 5/8 miles , 2.6 km
2018/02/21 03:11 KMUI 210311Z AUTO 00000KT 1 5/8SM BR CLR 10/10 A3029 RMK AO2 VIS 1 3/8V1 7/8 SLP262 $
KAPG - Aberdeen/Phillip, Maryland, USA
Distance from station: SSW 56mi, 91km
Updated: 02/20/2018 9:58pm
Clear
Clear
 Wind from SSW
Wind: SSW 10 mph , 17 km/h
Clouds: Clear
Visibility: 10 miles , 16 km
2018/02/21 02:58 KAPG 210258Z AUTO 20009KT 10SM CLR M A3033 RMK AO2 SLPNO 60001 55000 $
 
KWRI - Wrightst/Mcguire, New Jersey, USA
Distance from station: E 56mi, 91km
Updated: 02/20/2018 9:56pm
Clear
Clear
 Wind from SW
Wind: SW 8 mph , 13 km/h
Temperature: 61°F , 16°C
Dew Point: 59°F , 15°C
Humidity: 94%
Barometer: 30.31 inHg , 1026.4 hPa
Clouds: Clear
Visibility: 10 miles , 16 km
2018/02/21 02:56 KWRI 210256Z AUTO 22007KT 10SM CLR 16/15 A3031 RMK AO2 SLP263 T01640147 53003 $
KSMQ - Somerville, New Jersey, USA
Distance from station: ENE 59mi, 96km
Updated: 02/20/2018 10:12pm
Fog, Overcast
Fog, Overcast
 Wind from calm
Wind: Calm
Temperature: 46°F , 8°C
Dew Point: 46°F , 8°C
Humidity: 100%
Barometer: 30.31 inHg , 1026.4 hPa
Summary: Fog
Clouds: Overcast
Visibility: 1/4 mile , 0.4 km
Cloud details: Overcast 400 ft
2018/02/21 03:12 KSMQ 210312Z AUTO 00000KT 1/4SM FG VV004 08/08 A3031 RMK AO2 T00780078
 
KMDT - Middletown, Pennsylvania, USA
Distance from station: W 60mi, 97km
Updated: 02/20/2018 9:56pm
Partly Cloudy
Partly Cloudy
 Wind from SSE
Wind: SSE 7 mph , 11 km/h
Temperature: 61°F , 16°C
Dew Point: 52°F , 11°C
Humidity: 72%
Barometer: 30.28 inHg , 1025.4 hPa
Clouds: Partly Cloudy
Visibility: 10 miles , 16 km
Cloud details: Partly Cloudy 25000 ft
2018/02/21 02:56 KMDT 210256Z 15006KT 10SM SCT250 16/11 A3028 RMK AO2 SLP254 T01610106 53003
KMIV - Millville, New Jersey, USA
Distance from station: SSE 63mi, 101km
Updated: 02/20/2018 9:54pm
Few Clouds
Few Clouds
 Wind from varies
Wind: varies 3 mph , 6 km/h
Temperature: 57°F , 14°C
Dew Point: 57°F , 14°C
Humidity: 100%
Barometer: 30.37 inHg , 1028.4 hPa
Clouds: Few Clouds
Visibility: 8 miles , 13 km
Cloud details: Few Clouds 400 ft
2018/02/21 02:54 KMIV 210254Z AUTO VRB03KT 8SM FEW004 14/14 A3037 RMK AO2 SLP283 T01440139 53005